Startpagina
METAR-TAF:

METAR-TAF

Vliegvelden :

Flughafen Münster-Osnabrück

Münster-Osnabrück, Duitsland

breedte: 52-08N, lengte: 007-42E, hoogte: 48 m

Actueel weer

Dit bericht is 41 minuten geleden gemaakt, om 07:50 UTC
Wind 4 kt uit het zuidoosten
Temperatuur 9°C
Vochtigheid 81%
Druk 1023 hPa
Zicht 10 km of meer
geen wolken onder 1500 m en geen cumulonimbus

METAR: EDDG 180750Z 14004KT CAVOK 09/06 Q1023 NOSIG

Tijdstip: 10:31 (08:31 UTC)

Verwachting

Dit bericht is 3 uur en het 31 minuten geleden gemaakt, om 05:00 UTC
Verwachting geldig van 18 om 06 UTC tot 19 om 06 UTC
Wind 3 kt uit variabele richting
Zicht 10 km of meer
geen wolken onder 1500 m en geen cumulonimbus
Wijzigt naar
van 18 om 08 UTC tot 18 om 11 UTC
Wind 5 kt uit het zuidzuidoosten

TAF: EDDG 180500Z 1806/1906 VRB03KT CAVOK BECMG 1808/1811 16005KT

Waarnemingen en weersverwachtingen van meer dan 4000 vliegvelden (METAR en TAF).

De beschikbare stations zijn de gele en rode punten op de kaart.

Ga met uw muis naar het station om de naam te zien.

Klik dan om waarnemingen en weersverwachtingen te zien.

kaart wijzigen: klik op de groene knoppen met een zwart kruis om in te zoomen, op de groene knop met een streepje om uit te zoomen of op de groene pijlen voor aangrenzende kaarten.


METAR-TAF: